createdAt,value
2023-05-09T00:00:13.199Z,59.25278273867082
2023-05-09T00:03:12.836Z,60.65128776668165
2023-05-09T00:06:08.363Z,60.516606598475946
2023-05-09T00:09:04.946Z,58.62534842460723
2023-05-09T00:12:01.424Z,58.48548744091559
2023-05-09T00:14:56.988Z,59.799739796994615
2023-05-09T00:17:54.609Z,61.72313791282308
2023-05-09T00:20:51.094Z,58.68949666051065
2023-05-09T00:23:47.672Z,58.71761260884637
2023-05-09T00:26:43.224Z,59.576761984480704
2023-05-09T00:29:38.753Z,58.556148090752764
2023-05-09T00:32:34.395Z,57.896001003761356
2023-05-09T00:35:31.872Z,59.80132774103535
2023-05-09T00:38:27.457Z,60.63470766744317
2023-05-09T00:41:23.056Z,59.770665612005814
2023-05-09T00:44:18.598Z,60.00480557304784
2023-05-09T00:47:15.101Z,59.94312970526688
2023-05-09T00:50:11.699Z,60.600767868673096
2023-05-09T00:53:09.257Z,61.98982716151975
2023-05-09T00:56:05.820Z,60.83013975147984
2023-05-09T00:59:01.357Z,61.367680725478834
2023-05-09T01:01:57.963Z,60.278607428254226
2023-05-09T01:04:53.506Z,61.47790117872899
2023-05-09T01:08:00.053Z,62.25720049151033
2023-05-09T01:11:01.560Z,61.00431830384109
2023-05-09T01:14:06.123Z,60.39398254813326
2023-05-09T01:17:11.681Z,62.01569689056033
2023-05-09T01:20:19.197Z,61.62856542225309
2023-05-09T01:23:26.738Z,62.49382490688723
2023-05-09T01:26:32.255Z,61.3707387480397
2023-05-09T01:29:37.809Z,63.58633081265375
2023-05-09T01:32:37.369Z,62.05445576152979
2023-05-09T01:35:37.957Z,64.1080152041134
2023-05-09T01:38:37.457Z,62.00682388755084
2023-05-09T01:41:38.001Z,61.308269674198954
2023-05-09T01:44:38.539Z,60.260306925452326
2023-05-09T01:47:36.131Z,62.23140473413763
2023-05-09T01:50:35.670Z,62.91413112815819
2023-05-09T01:53:34.228Z,61.851836838473886
2023-05-09T01:56:31.747Z,62.66058084583831
2023-05-09T01:59:30.309Z,62.979033849272824
2023-05-09T02:02:27.960Z,64.00168344553222
2023-05-09T02:05:27.431Z,63.76919312726433
2023-05-09T02:08:25.004Z,63.90985363585588
2023-05-09T02:11:22.522Z,63.22528618534081
2023-05-09T02:14:18.126Z,63.7234907499843
2023-05-09T02:17:18.667Z,63.58394331209425
2023-05-09T02:20:14.220Z,62.64666850819703
2023-05-09T02:23:11.743Z,65.29958869255155
2023-05-09T02:26:08.334Z,63.4490999718605
2023-05-09T02:29:05.957Z,64.42611846105129
2023-05-09T02:32:03.498Z,63.690713320452076
2023-05-09T02:35:01.001Z,64.84372708393168
2023-05-09T02:37:58.566Z,64.76630793677923
2023-05-09T02:40:56.110Z,65.25880792753773
2023-05-09T02:43:51.642Z,64.16931342593422
2023-05-09T02:46:47.238Z,65.48674859888597
2023-05-09T02:49:43.811Z,63.447262316328434
2023-05-09T02:52:39.337Z,67.13455549354164
2023-05-09T02:55:35.900Z,65.01599479030213
2023-05-09T02:58:31.468Z,64.6410074686789
2023-05-09T03:01:27.091Z,65.42882799952126
2023-05-09T03:04:22.571Z,63.85190472836462
2023-05-09T03:07:18.195Z,62.610655380465964
2023-05-09T03:10:14.724Z,66.91999121429974
2023-05-09T03:13:10.286Z,69.12009234186056
2023-05-09T03:16:06.865Z,70.95905563863566
2023-05-09T03:19:03.416Z,70.05335490089789
2023-05-09T03:21:58.952Z,68.20419115448085
2023-05-09T03:24:54.536Z,68.03936773390903
2023-05-09T03:27:50.099Z,66.57484716516424
2023-05-09T03:30:46.618Z,65.9756937476717
2023-05-09T03:33:42.211Z,68.33645445283659
2023-05-09T03:36:38.757Z,66.75194556722687
2023-05-09T03:39:34.293Z,69.0067406224413
2023-05-09T03:42:30.880Z,70.0982884085111
2023-05-09T03:45:27.449Z,67.87295186514677
2023-05-09T03:48:23.017Z,68.6957080130597
2023-05-09T03:51:18.549Z,70.2540541654795
2023-05-09T03:54:15.130Z,69.85286601391576
2023-05-09T03:57:10.660Z,68.77635419978049
2023-05-09T04:00:08.238Z,66.0392907381312
2023-05-09T04:03:04.861Z,64.65952868040539
2023-05-09T04:06:00.383Z,65.74598503469566
2023-05-09T04:08:55.971Z,65.10713331073913
2023-05-09T04:11:53.495Z,64.59101792907353
2023-05-09T04:14:51.020Z,65.68246011365027
2023-05-09T04:17:47.638Z,65.25875689721906
2023-05-09T04:20:44.127Z,66.69012853339203
2023-05-09T04:23:39.706Z,64.10541198839185
2023-05-09T04:26:38.304Z,61.31292500011906
2023-05-09T04:29:34.828Z,63.69156400964966
2023-05-09T04:32:30.423Z,65.75132714696443
2023-05-09T04:35:26.954Z,63.81404680629291
2023-05-09T04:38:23.544Z,60.81898348188867
2023-05-09T04:41:19.085Z,63.20502404743151
2023-05-09T04:44:14.647Z,62.86291337279606
2023-05-09T04:47:10.180Z,62.001002176717506
2023-05-09T04:50:06.771Z,61.2671961277844
2023-05-09T04:53:02.265Z,62.49689754396888
2023-05-09T04:55:57.866Z,60.77471079042356
2023-05-09T04:58:53.453Z,62.36858693027155
2023-05-09T05:01:50.054Z,61.41092341746568
2023-05-09T05:04:45.579Z,61.69640104303027
2023-05-09T05:07:41.127Z,60.823843799372874
2023-05-09T05:10:37.659Z,60.40206886430678
2023-05-09T05:13:33.220Z,60.198819359835994
2023-05-09T05:16:29.845Z,59.839986806191
2023-05-09T05:19:25.378Z,60.999664952781295
2023-05-09T05:22:20.925Z,61.42561156262664
2023-05-09T05:25:17.672Z,60.29494733439678
2023-05-09T05:28:13.062Z,61.33362183256156
2023-05-09T05:31:08.654Z,58.76480780953771
2023-05-09T05:34:04.175Z,58.52895640725475
2023-05-09T05:37:00.724Z,59.16030418145212
2023-05-09T05:39:56.269Z,58.27137223669685
2023-05-09T05:42:51.846Z,60.54275247266291
2023-05-09T05:45:47.429Z,61.338060904567755
2023-05-09T05:48:42.972Z,60.29871155462622
2023-05-09T05:51:38.559Z,58.709172874240075
2023-05-09T05:54:34.098Z,59.551491363211
2023-05-09T05:57:29.640Z,59.8246252106335
2023-05-09T06:00:25.215Z,60.50048503132303
2023-05-09T06:03:20.844Z,57.902127500767676
2023-05-09T06:06:18.316Z,58.96363247499353
2023-05-09T06:09:14.896Z,56.93445540517058
2023-05-09T06:12:11.448Z,60.33630540856844
2023-05-09T06:15:07.988Z,72.7947218979501
2023-05-09T06:18:04.551Z,74.34730287862413
2023-05-09T06:21:00.085Z,69.21695892268349
2023-05-09T06:26:54.260Z,61.62213534562623
2023-05-09T06:29:51.781Z,55.564424683215414
2023-05-09T06:32:50.378Z,53.931243859604535
2023-05-09T06:35:46.894Z,54.48681405895643
2023-05-09T06:38:42.466Z,54.3617634162305
2023-05-09T06:41:37.988Z,53.72638040945394
2023-05-09T06:44:33.624Z,54.077906743635516
2023-05-09T06:47:29.199Z,54.563520867018845
2023-05-09T06:50:24.717Z,52.79243420256951
2023-05-09T06:53:20.279Z,51.965880409159034
2023-05-09T06:56:16.690Z,52.69614161773588
2023-05-09T06:59:13.394Z,52.00357809755319
2023-05-09T07:02:08.992Z,52.57702734302844
2023-05-09T07:05:05.555Z,53.38917480890859
2023-05-09T07:08:01.091Z,55.11235627169163
2023-05-09T07:10:58.654Z,54.14270043349554
2023-05-09T07:13:54.230Z,51.31736457509887
2023-05-09T07:16:49.886Z,52.44153361725763
2023-05-09T07:19:45.347Z,51.282710211628384
2023-05-09T07:22:40.997Z,51.01871865461445
2023-05-09T07:25:38.485Z,52.64056974844937
2023-05-09T07:28:39.003Z,51.915457726630464
2023-05-09T07:31:37.233Z,52.9243403807229
2023-05-09T07:34:33.116Z,52.90107326537181
2023-05-09T07:37:29.663Z,50.835479355005056
2023-05-09T07:40:25.228Z,52.196203576655876
2023-05-09T07:43:21.774Z,51.19933491148778
2023-05-09T07:46:18.391Z,51.08839906853576
2023-05-09T07:49:13.928Z,50.40447202685798
2023-05-09T07:52:09.443Z,48.31212770383528
2023-05-09T07:55:06.035Z,51.05086881788593
2023-05-09T07:58:01.615Z,50.8868411402334
2023-05-09T08:00:58.156Z,48.92895508111609
2023-05-09T08:03:53.867Z,52.72302988327224
2023-05-09T08:06:49.257Z,50.22952653440503
2023-05-09T08:09:44.834Z,50.84194166949534
2023-05-09T08:12:40.419Z,48.230104364917224
2023-05-09T08:15:37.005Z,46.415593599195816
2023-05-09T08:18:32.529Z,47.50240659610233
2023-05-09T08:21:30.065Z,48.087245997854424
2023-05-09T08:24:26.625Z,47.85241287782581
2023-05-09T08:27:22.208Z,46.17799777293826
2023-05-09T08:30:17.768Z,46.47071016182892
2023-05-09T08:33:13.485Z,47.26862903290946
2023-05-09T08:36:08.869Z,49.37179731109574
2023-05-09T08:39:04.450Z,48.029092757131856
2023-05-09T08:42:01.134Z,48.27646036491563
2023-05-09T08:44:58.618Z,48.15058774483529
2023-05-09T08:47:55.169Z,48.57353423995606
2023-05-09T08:50:52.670Z,46.55866095952819
2023-05-09T08:53:49.257Z,45.99648419890382
2023-05-09T08:56:45.802Z,44.011220932159176
2023-05-09T08:59:42.342Z,46.3344279639688
2023-05-09T09:02:40.936Z,46.32730971795801
2023-05-09T09:05:42.638Z,44.01320089278293
2023-05-09T09:08:40.000Z,44.123956216158106
2023-05-09T09:11:36.568Z,46.89000230502257
2023-05-09T09:14:35.154Z,43.94979612365472
2023-05-09T09:17:32.725Z,44.59081011464489
2023-05-09T09:20:33.258Z,43.63849552513821
2023-05-09T09:23:32.769Z,48.031652384555066
2023-05-09T09:26:31.360Z,47.207365909142
2023-05-09T09:29:29.892Z,45.17367257056881
2023-05-09T09:32:31.450Z,43.12431200595934
2023-05-09T09:35:38.974Z,42.82030112242471
2023-05-09T09:38:40.533Z,41.24235373788555
2023-05-09T09:41:37.056Z,41.241654743026224
2023-05-09T09:44:38.628Z,41.95090601087958
2023-05-09T09:47:34.250Z,39.86840823389918
2023-05-09T09:50:29.703Z,39.71547729819814
2023-05-09T09:53:30.475Z,40.06004972374356
2023-05-09T09:56:30.805Z,42.3665516029337
2023-05-09T09:59:31.439Z,37.91438138258098
2023-05-09T10:02:29.008Z,40.91183636029544
2023-05-09T10:05:25.505Z,38.93442956346943
2023-05-09T10:08:24.027Z,42.36408931411785
2023-05-09T10:11:20.669Z,40.00414428557962
2023-05-09T10:14:18.176Z,42.26358498175327
2023-05-09T10:17:15.800Z,38.81088855011843
2023-05-09T10:20:17.378Z,39.02004540735667
2023-05-09T10:23:15.839Z,37.60349811335011
2023-05-09T10:26:17.339Z,37.28338143464947
2023-05-09T10:29:20.946Z,35.70562386463616
2023-05-09T10:32:21.494Z,34.41513853249653
2023-05-09T10:35:20.046Z,33.670552098519664
2023-05-09T10:38:16.603Z,34.010448946779135
2023-05-09T10:41:14.150Z,35.67133283219202
2023-05-09T10:44:10.680Z,34.052534223867994
2023-05-09T10:47:07.341Z,32.79924904105943
2023-05-09T10:50:04.822Z,32.818409043844355
2023-05-09T10:53:05.357Z,31.79000715092686
2023-05-09T10:56:06.898Z,32.28320453875954
2023-05-09T10:59:04.473Z,31.38424304303492
2023-05-09T11:02:03.073Z,31.571657006319562
2023-05-09T11:05:08.563Z,31.023426082138897
2023-05-09T11:08:15.101Z,31.512996361943582
2023-05-09T11:11:21.640Z,31.299477567213593
2023-05-09T11:14:23.199Z,30.766901595627505
2023-05-09T11:17:31.742Z,31.76585333053151
2023-05-09T11:20:34.266Z,31.18879138621615
2023-05-09T11:23:31.761Z,30.55050277690128
2023-05-09T11:26:38.332Z,29.350218476546797
2023-05-09T11:32:47.439Z,28.174751631711285
2023-05-09T11:35:45.982Z,26.83800125152694
2023-05-09T11:38:42.527Z,25.332840907211963
2023-05-09T11:41:40.036Z,27.664383250286903
2023-05-09T11:44:36.673Z,27.169539910182575
2023-05-09T11:47:36.247Z,24.59880805819194
2023-05-09T11:50:31.787Z,29.42731686588082
2023-05-09T11:53:27.323Z,28.599567160849865
2023-05-09T11:56:22.916Z,28.46723345139222
2023-05-09T11:59:20.451Z,26.506944016099272
2023-05-09T12:02:17.026Z,24.879095115717142
2023-05-09T12:05:13.664Z,24.237831079341014
2023-05-09T12:08:10.118Z,24.804559655337876
2023-05-09T12:11:11.694Z,22.81562256143846
2023-05-09T12:14:07.208Z,22.562949295474088
2023-05-09T12:17:03.771Z,24.968414023431297
2023-05-09T12:20:01.342Z,24.64818141065447
2023-05-09T12:22:56.890Z,26.46410192242048
2023-05-09T12:25:55.492Z,27.374512961091824
2023-05-09T12:28:52.016Z,27.01837991860299
2023-05-09T12:31:49.589Z,29.886848079516174
2023-05-09T12:34:47.138Z,28.354517472098006
2023-05-09T12:37:52.645Z,25.43712975943531
2023-05-09T12:40:48.197Z,25.11059838299194
2023-05-09T12:43:47.742Z,27.988135079161893
2023-05-09T12:46:48.401Z,29.499267497091576
2023-05-09T12:49:49.877Z,27.587920975093407
2023-05-09T12:53:02.022Z,28.43994586012602
2023-05-09T12:55:54.980Z,25.457004561466494
2023-05-09T12:58:52.568Z,23.80776044384234
2023-05-09T13:01:53.088Z,20.91524247284925
2023-05-09T13:04:56.560Z,21.228431211354163
2023-05-09T13:07:57.199Z,20.561173196198805
2023-05-09T13:11:07.828Z,22.73783717156847
2023-05-09T13:13:59.245Z,21.39598245501748
2023-05-09T13:16:55.792Z,22.290180659585523
2023-05-09T13:19:51.373Z,23.20225099760696
2023-05-09T13:22:47.948Z,24.058191917358748
2023-05-09T13:25:44.502Z,23.077246276534904
2023-05-09T13:28:40.054Z,22.946224494843953
2023-05-09T13:31:35.598Z,23.168648164698112
2023-05-09T13:34:32.147Z,21.95551960788957
2023-05-09T13:37:27.720Z,23.31034616185489
2023-05-09T13:40:23.306Z,21.40653532666356
2023-05-09T13:43:22.824Z,20.840593033364268
2023-05-09T13:46:18.509Z,22.768462935252124
2023-05-09T13:49:14.002Z,21.866752394994055
2023-05-09T13:52:10.552Z,20.744718801262785
2023-05-09T13:55:08.092Z,19.73667331486726
2023-05-09T13:58:03.599Z,21.728445021352197
2023-05-09T14:00:59.194Z,21.769121769824586
2023-05-09T14:03:54.779Z,21.14503616537152
2023-05-09T14:06:51.321Z,22.438262264049467
2023-05-09T14:09:48.167Z,20.877830288464335
2023-05-09T14:12:47.552Z,20.80704630356277
2023-05-09T14:15:43.001Z,22.436572878369255
2023-05-09T14:18:38.554Z,22.541355188604477
2023-05-09T14:21:34.130Z,22.51764340803701
2023-05-09T14:24:30.730Z,22.96480690691753
2023-05-09T14:27:27.271Z,23.55463443773099
2023-05-09T14:30:22.821Z,23.376415882131887
2023-05-09T14:33:19.366Z,22.165375805934307
2023-05-09T14:36:15.912Z,20.48980824783997
2023-05-09T14:39:12.495Z,18.45372785144951
2023-05-09T14:42:11.031Z,17.4188769543752
2023-05-09T14:45:10.619Z,18.439398588492697
2023-05-09T14:48:06.218Z,17.42036076794772
2023-05-09T14:51:02.709Z,18.212468548935473
2023-05-09T14:53:59.310Z,17.09865654233562
2023-05-09T14:56:55.815Z,16.225387027116064
2023-05-09T14:59:51.384Z,16.112372477076512
2023-05-09T15:02:47.033Z,16.855781220757187
2023-05-09T15:05:44.505Z,14.69420784501006
2023-05-09T15:08:41.071Z,15.032655497004365
2023-05-09T15:11:47.642Z,18.99700543640638
2023-05-09T15:14:41.152Z,18.634400988245726
2023-05-09T15:17:36.761Z,20.329739787831155
2023-05-09T15:20:32.294Z,20.527537977771523
2023-05-09T15:23:27.996Z,21.421644934660844
2023-05-09T15:26:23.413Z,21.978818442472924
2023-05-09T15:29:21.979Z,23.524474543542993
2023-05-09T15:32:17.551Z,25.08935206627352
2023-05-09T15:35:14.080Z,25.04749320567745
2023-05-09T15:38:11.636Z,25.002253815635537
2023-05-09T15:41:07.202Z,24.305083927931552
2023-05-09T15:44:02.745Z,27.103994169256396
2023-05-09T15:46:59.325Z,26.3326512457102
2023-05-09T15:49:54.898Z,25.347488254220604
2023-05-09T15:52:52.420Z,25.212467216060706
2023-05-09T15:55:49.003Z,23.95154666860342
2023-05-09T15:58:45.517Z,24.905344492170084
2023-05-09T16:01:44.148Z,23.561740801466012
2023-05-09T16:04:41.679Z,22.02465144949098
2023-05-09T16:07:37.423Z,19.94927818323737
2023-05-09T16:10:33.809Z,18.99361048635414
2023-05-09T16:13:29.431Z,20.172565321802914
2023-05-09T16:16:25.962Z,19.858718113084336
2023-05-09T16:19:22.495Z,19.45790515837764
2023-05-09T16:22:19.046Z,19.97870211809997
2023-05-09T16:25:16.584Z,18.536822225187915
2023-05-09T16:28:13.137Z,19.081230410222588
2023-05-09T16:31:08.765Z,21.871785119384327
2023-05-09T16:34:04.333Z,24.26764893615756
2023-05-09T16:37:02.884Z,24.294052840408426
2023-05-09T16:40:00.494Z,26.674856666816915
2023-05-09T16:42:55.990Z,28.87432902791563
2023-05-09T16:45:52.545Z,31.000392972234792
2023-05-09T16:48:51.080Z,31.937904758463734
2023-05-09T16:51:46.615Z,34.56789728321739
2023-05-09T16:54:42.179Z,34.92768858017623
2023-05-09T16:57:37.782Z,37.06899992065153
2023-05-09T17:00:33.273Z,39.21817315662433
2023-05-09T17:03:29.873Z,40.054769601485674
2023-05-09T17:06:26.419Z,40.900388615574286
2023-05-09T17:09:22.991Z,40.968007952831954
2023-05-09T17:12:20.536Z,41.90749946573458
2023-05-09T17:15:17.053Z,41.914170776655276
2023-05-09T17:18:15.259Z,42.628376106112356
2023-05-09T17:21:14.203Z,43.38284106893508
2023-05-09T17:24:09.776Z,43.911362753020896
2023-05-09T17:27:05.331Z,44.38690558582062
2023-05-09T17:30:01.876Z,44.71431840190047
2023-05-09T17:32:58.501Z,45.40577594482019
2023-05-09T17:35:55.015Z,46.4006308195863
2023-05-09T17:38:51.544Z,47.29002674064313
2023-05-09T17:41:47.081Z,47.79365332535145
2023-05-09T17:44:44.273Z,48.43858597151786
2023-05-09T17:47:41.316Z,49.121551512031616
2023-05-09T17:50:39.786Z,49.46511066823176
2023-05-09T17:53:35.336Z,50.73980893626509
2023-05-09T17:56:30.941Z,51.53111027592762
2023-05-09T17:59:28.493Z,51.43834577442642
2023-05-09T18:02:25.113Z,51.61799566418399
2023-05-09T18:05:23.344Z,52.099465357100215
2023-05-09T18:08:19.147Z,52.24360439964454
2023-05-09T18:11:15.712Z,52.78982800049291
2023-05-09T18:14:12.279Z,52.85002149319268
2023-05-09T18:17:07.810Z,53.473006989024505
2023-05-09T18:20:04.395Z,53.074817668896024
2023-05-09T18:23:00.942Z,53.12531018683714
2023-05-09T18:25:56.493Z,53.419448329068
2023-05-09T18:28:56.047Z,53.38113325958212
2023-05-09T18:31:51.669Z,53.30312176044125
2023-05-09T18:34:48.190Z,53.637271146628514
2023-05-09T18:37:43.752Z,53.831419250011756
2023-05-09T18:40:43.311Z,53.92075904021874
2023-05-09T18:43:45.940Z,54.0275213574655
2023-05-09T18:46:41.434Z,53.81288294700013
2023-05-09T18:49:38.976Z,54.69182591905565
2023-05-09T18:52:34.517Z,55.37749346864006
2023-05-09T18:55:32.086Z,56.06359794078954
2023-05-09T18:58:28.936Z,56.202654572606185
2023-05-09T19:01:25.291Z,56.120104581396205
2023-05-09T19:04:26.778Z,56.14408637056024
2023-05-09T19:07:23.292Z,56.00607458184227
2023-05-09T19:10:19.837Z,56.01418607454248
2023-05-09T19:13:16.542Z,56.64010971787424
2023-05-09T19:16:12.987Z,56.726830541988726
2023-05-09T19:19:09.522Z,56.91130266514669
2023-05-09T19:22:07.101Z,57.060730786478516
2023-05-09T19:25:05.634Z,57.169567108300825
2023-05-09T19:28:01.255Z,56.417936539295226
2023-05-09T19:30:57.781Z,56.68775005987188
2023-05-09T19:33:53.312Z,57.26270236517522
2023-05-09T19:36:49.960Z,57.74938984653385
2023-05-09T19:39:45.480Z,57.5356749462635
2023-05-09T19:42:41.986Z,58.10267190810741
2023-05-09T19:45:38.552Z,57.81033168466673
2023-05-09T19:48:41.122Z,57.64027899837843
2023-05-09T19:51:40.682Z,58.55203415814256
2023-05-09T19:54:36.187Z,58.697806644022236
2023-05-09T19:57:31.767Z,58.72297424426752
2023-05-09T20:00:28.363Z,59.1223868287617
2023-05-09T20:03:23.973Z,59.40763495294262
2023-05-09T20:06:19.515Z,58.7856614682566
2023-05-09T20:09:21.080Z,58.95553317130345
2023-05-09T20:12:17.559Z,60.233120289306534
2023-05-09T20:15:14.125Z,60.582231824949055
2023-05-09T20:18:09.796Z,60.52671591055054
2023-05-09T20:21:09.239Z,61.71116596644189
2023-05-09T20:24:05.833Z,61.65567377855983
2023-05-09T20:27:02.380Z,61.37829235631874
2023-05-09T20:29:58.073Z,61.35982267752654
2023-05-09T20:32:53.503Z,62.067992809885965
2023-05-09T20:35:49.064Z,62.7132789890038
2023-05-09T20:38:44.601Z,62.531508740198596
2023-05-09T20:41:40.172Z,62.941046930006685
2023-05-09T20:44:37.746Z,62.74623484271351
2023-05-09T20:47:34.286Z,62.83290746005197
2023-05-09T20:50:29.845Z,63.393614662418585
2023-05-09T20:53:27.428Z,64.14892200916965
2023-05-09T20:56:23.953Z,64.59085368767903
2023-05-09T20:59:19.518Z,63.88081466233627
2023-05-09T21:02:15.148Z,64.24044430158744
2023-05-09T21:05:10.659Z,64.95313409108073
2023-05-09T21:08:06.199Z,64.72543553404117
2023-05-09T21:11:02.826Z,64.23401472715935
2023-05-09T21:13:58.328Z,64.7921522338895
2023-05-09T21:16:57.928Z,64.82064704975764
2023-05-09T21:19:53.417Z,64.98270217988082
2023-05-09T21:22:49.000Z,65.02330417164266
2023-05-09T21:25:44.555Z,64.96854754200199
2023-05-09T21:28:40.134Z,65.97408015537476
2023-05-09T21:31:36.838Z,67.20464286386775
2023-05-09T21:34:32.249Z,67.94209400740402
2023-05-09T21:37:28.842Z,68.12617592156904
2023-05-09T21:40:25.365Z,67.67957733983316
2023-05-09T21:43:21.962Z,68.34159811144158
2023-05-09T21:46:17.525Z,68.3603508478632
2023-05-09T21:49:16.052Z,68.70760291672234
2023-05-09T21:52:11.597Z,67.99804881730665
2023-05-09T21:55:08.163Z,68.60788626580499
2023-05-09T21:58:03.687Z,69.37920867654276
2023-05-09T22:01:00.268Z,69.93736725902292
2023-05-09T22:03:56.842Z,69.90667374523308
2023-05-09T22:06:52.363Z,70.45195570202874
2023-05-09T22:09:47.993Z,70.4631728943182
2023-05-09T22:12:43.535Z,69.73372198531008
2023-05-09T22:15:41.065Z,70.19611623769316
2023-05-09T22:18:36.650Z,69.86155495805599
2023-05-09T22:21:32.163Z,69.35850061867148
2023-05-09T22:24:27.750Z,69.1998323834343
2023-05-09T22:27:23.299Z,67.9340264417075
2023-05-09T22:30:19.909Z,69.33156723668935
2023-05-09T22:33:15.488Z,69.51653155258025
2023-05-09T22:36:10.983Z,69.71707421267445
2023-05-09T22:39:06.565Z,70.08829141259527
2023-05-09T22:42:04.147Z,70.18795836481408
2023-05-09T22:44:59.658Z,70.29386889299072
2023-05-09T22:47:55.235Z,70.86915814829365
2023-05-09T22:50:50.807Z,70.685922489344
2023-05-09T22:53:46.420Z,71.66386657999153
2023-05-09T22:56:42.945Z,71.4141723670043
2023-05-09T22:59:38.506Z,70.88405543806334
2023-05-09T23:02:34.181Z,71.04008168502928
2023-05-09T23:05:29.616Z,70.80252254848831
2023-05-09T23:08:25.187Z,71.04043546695652
2023-05-09T23:11:23.750Z,71.18418167241073
2023-05-09T23:14:19.290Z,71.05421939824579
2023-05-09T23:17:14.872Z,71.79945182397677
2023-05-09T23:20:11.410Z,71.43471306014204
2023-05-09T23:23:06.990Z,71.46230945408252
2023-05-09T23:26:02.557Z,71.33373797930062
2023-05-09T23:28:58.118Z,71.29573132257526
2023-05-09T23:31:53.685Z,72.89550683757055
2023-05-09T23:34:49.188Z,72.38381521370546
2023-05-09T23:37:44.804Z,72.56355315125218
2023-05-09T23:40:43.341Z,72.00102526471328
2023-05-09T23:43:38.940Z,72.78757237976447
2023-05-09T23:46:35.528Z,72.63888050090208
2023-05-09T23:49:31.054Z,72.36495649492063
2023-05-09T23:52:26.590Z,72.26903885491215
2023-05-09T23:55:22.203Z,73.10788897915558
2023-05-09T23:58:17.741Z,72.30412424985421
